Time;durP1;ratioP1;P1;durP2;ratioP2;P2;SDS_P1;SDS_P2;PMS_P1;PMS_P2;Temp;Humidity;BMP_temperature;BMP_pressure;BME280_temperature;BME280_humidity;BME280_pressure;Samples;Min_cycle;Max_cycle;Signal;HPM_P1;HPM_P2
2020/12/26 00:01:54;;;;;;;7.43;0.95;;;6.10;99.90;;;;;;4935878;29;20200;-77
2020/12/26 00:04:20;;;;;;;5.05;1.10;;;6.10;99.90;;;;;;4936568;29;20230;-80
2020/12/26 00:06:50;;;;;;;8.25;1.10;;;6.10;99.90;;;;;;4935139;29;20227;-79
2020/12/26 00:09:16;;;;;;;5.90;1.60;;;6.00;99.90;;;;;;4936193;29;20207;-77
2020/12/26 00:11:43;;;;;;;10.80;1.10;;;6.00;99.90;;;;;;4934917;29;20215;-77
2020/12/26 00:14:10;;;;;;;9.75;1.10;;;6.00;99.90;;;;;;4936100;29;20676;-78
2020/12/26 00:16:37;;;;;;;8.45;1.40;;;6.00;99.90;;;;;;4935157;29;20249;-78
2020/12/26 00:19:03;;;;;;;9.65;1.33;;;5.90;99.90;;;;;;4934912;29;20207;-78
2020/12/26 00:21:29;;;;;;;13.50;1.55;;;5.90;99.90;;;;;;4933339;29;20211;-78
2020/12/26 00:23:56;;;;;;;10.20;1.27;;;5.90;99.90;;;;;;4937057;29;20207;-80
2020/12/26 00:26:22;;;;;;;6.13;1.20;;;5.80;99.90;;;;;;4935825;29;21460;-78
2020/12/26 00:28:48;;;;;;;7.78;1.38;;;5.80;99.90;;;;;;4920120;29;20218;-78
2020/12/26 00:31:16;;;;;;;19.67;2.17;;;5.80;99.90;;;;;;4934291;29;20207;-78
2020/12/26 00:33:43;;;;;;;7.47;1.77;;;5.80;99.90;;;;;;4936993;29;20652;-78
2020/12/26 00:36:10;;;;;;;9.05;1.73;;;5.70;99.90;;;;;;4932583;29;20210;-78
2020/12/26 00:38:36;;;;;;;9.20;1.63;;;5.70;99.90;;;;;;4937593;29;20245;-78
2020/12/26 00:41:02;;;;;;;13.18;1.80;;;5.70;99.90;;;;;;4935802;29;20679;-78
2020/12/26 00:43:29;;;;;;;7.90;1.50;;;5.70;99.90;;;;;;4935124;29;20688;-77
2020/12/26 00:45:55;;;;;;;15.38;1.65;;;5.60;99.90;;;;;;4935818;29;20629;-79
2020/12/26 00:48:22;;;;;;;10.40;1.50;;;5.60;99.90;;;;;;4920155;29;20262;-78
2020/12/26 00:50:49;;;;;;;8.13;1.50;;;5.60;99.90;;;;;;4936739;29;20302;-79
2020/12/26 00:53:15;;;;;;;8.30;1.75;;;5.60;99.90;;;;;;4935580;29;20222;-79
2020/12/26 00:55:42;;;;;;;14.43;1.70;;;5.60;99.90;;;;;;4935342;29;20214;-78
2020/12/26 00:58:10;;;;;;;10.40;1.70;;;5.60;99.90;;;;;;4919319;29;20266;-78
2020/12/26 01:00:36;;;;;;;10.90;1.75;;;5.50;99.90;;;;;;4934680;29;20215;-78
2020/12/26 01:03:23;;;;;;;12.88;2.15;;;5.60;99.90;;;;;;4934932;29;20290;-78
2020/12/26 01:05:50;;;;;;;13.55;1.88;;;5.50;99.90;;;;;;4914295;29;20219;-78
2020/12/26 01:08:16;;;;;;;14.10;1.45;;;5.50;99.90;;;;;;4933032;29;20214;-78
2020/12/26 01:10:43;;;;;;;10.40;1.75;;;5.60;99.90;;;;;;4933491;29;20215;-77
2020/12/26 01:13:09;;;;;;;7.38;1.63;;;5.50;99.90;;;;;;4935213;29;20564;-78
2020/12/26 01:15:36;;;;;;;6.75;1.27;;;5.50;99.90;;;;;;4917144;29;20204;-78
2020/12/26 01:18:03;;;;;;;18.00;2.15;;;5.50;99.90;;;;;;4915076;29;20254;-79
2020/12/26 01:20:30;;;;;;;11.65;1.50;;;5.60;99.90;;;;;;4917352;29;20331;-79
2020/12/26 01:22:56;;;;;;;12.05;1.50;;;5.60;99.90;;;;;;4934112;29;20207;-78
2020/12/26 01:25:23;;;;;;;10.43;1.50;;;5.60;99.90;;;;;;4933619;29;20298;-79
2020/12/26 01:27:49;;;;;;;10.25;1.52;;;5.60;99.90;;;;;;4927545;29;20296;-77
2020/12/26 01:30:16;;;;;;;4.90;1.17;;;5.60;99.90;;;;;;4932384;29;20207;-80
2020/12/26 01:32:42;;;;;;;5.70;1.20;;;5.60;99.90;;;;;;4931706;29;20209;-79
2020/12/26 01:35:08;;;;;;;13.45;1.63;;;5.60;99.90;;;;;;4932973;29;20266;-79
2020/12/26 01:37:36;;;;;;;6.75;1.38;;;5.60;99.90;;;;;;4932016;29;20203;-77
2020/12/26 01:40:03;;;;;;;6.70;1.50;;;5.60;99.90;;;;;;4930643;29;20215;-78
2020/12/26 01:42:29;;;;;;;5.65;1.23;;;5.60;99.90;;;;;;4932033;29;20203;-79
2020/12/26 01:44:55;;;;;;;9.15;1.48;;;5.60;99.90;;;;;;4932534;29;20213;-76
2020/12/26 01:47:22;;;;;;;8.75;1.38;;;5.60;99.90;;;;;;4933388;29;20229;-76
2020/12/26 01:49:48;;;;;;;10.65;1.67;;;5.70;99.90;;;;;;4930761;29;20214;-77
2020/12/26 01:52:16;;;;;;;10.65;1.83;;;5.70;99.90;;;;;;4931311;29;20581;-78
2020/12/26 01:54:43;;;;;;;10.02;1.38;;;5.70;99.90;;;;;;4931511;29;20200;-78
2020/12/26 01:57:10;;;;;;;7.00;1.63;;;5.70;99.90;;;;;;4932929;29;20203;-78
2020/12/26 01:59:36;;;;;;;13.80;1.90;;;5.70;99.90;;;;;;4931713;29;20274;-78
2020/12/26 02:02:08;;;;;;;9.32;2.03;;;5.70;99.90;;;;;;4930687;29;20218;-76
2020/12/26 02:04:34;;;;;;;9.00;2.22;;;5.70;99.90;;;;;;4926928;29;20214;-77
2020/12/26 02:07:04;;;;;;;14.00;2.60;;;5.70;99.90;;;;;;4932686;29;20680;-77
2020/12/26 02:09:30;;;;;;;6.90;1.80;;;5.80;99.90;;;;;;4929861;29;20215;-77
2020/12/26 02:11:58;;;;;;;7.18;1.75;;;5.80;99.90;;;;;;4930026;29;20215;-75
2020/12/26 02:14:24;;;;;;;9.80;2.13;;;5.80;99.90;;;;;;4930188;29;20274;-77
2020/12/26 02:16:52;;;;;;;8.05;2.10;;;5.80;99.90;;;;;;4932070;29;20282;-77
2020/12/26 02:19:19;;;;;;;3.85;1.75;;;5.80;99.90;;;;;;4933228;29;20225;-77
2020/12/26 02:21:46;;;;;;;9.25;2.10;;;5.90;99.90;;;;;;4930221;29;20203;-76
2020/12/26 02:24:13;;;;;;;10.13;1.80;;;5.90;99.90;;;;;;4933067;29;20202;-77
2020/12/26 02:26:40;;;;;;;7.50;2.30;;;5.90;99.90;;;;;;4930869;29;20245;-77
2020/12/26 02:29:07;;;;;;;9.63;2.22;;;5.90;99.90;;;;;;4922242;29;20211;-75
2020/12/26 02:31:35;;;;;;;10.45;2.33;;;5.90;99.90;;;;;;4918082;29;20224;-77
2020/12/26 02:34:02;;;;;;;5.50;2.25;;;5.90;99.90;;;;;;4918027;29;20208;-77
2020/12/26 02:36:28;;;;;;;10.10;1.88;;;5.90;99.90;;;;;;4906621;29;20207;-77
2020/12/26 02:38:55;;;;;;;12.82;2.63;;;5.90;99.90;;;;;;4928582;29;20250;-77
2020/12/26 02:41:22;;;;;;;16.73;2.10;;;5.90;99.90;;;;;;4927293;29;20195;-77
2020/12/26 02:43:49;;;;;;;9.50;2.38;;;5.90;99.90;;;;;;4920216;29;20212;-79
2020/12/26 02:46:15;;;;;;;7.65;2.05;;;5.90;99.90;;;;;;4918887;29;20223;-78
2020/12/26 02:48:42;;;;;;;11.40;2.08;;;6.00;99.90;;;;;;4918104;29;20207;-77
2020/12/26 02:51:08;;;;;;;11.88;2.40;;;6.00;99.90;;;;;;4916935;29;20299;-77
2020/12/26 02:53:34;;;;;;;9.10;2.00;;;6.00;99.90;;;;;;4923777;29;20222;-77
2020/12/26 02:56:03;;;;;;;8.27;1.80;;;6.00;99.90;;;;;;4920114;29;20341;-78
2020/12/26 02:58:30;;;;;;;9.77;2.35;;;6.00;99.90;;;;;;4912995;29;20231;-77
2020/12/26 03:00:57;;;;;;;14.35;1.98;;;6.00;99.90;;;;;;4918898;29;20686;-77
2020/12/26 03:03:23;;;;;;;17.33;1.98;;;6.00;99.90;;;;;;4924135;29;20212;-78
2020/12/26 03:05:49;;;;;;;7.72;1.90;;;6.00;99.90;;;;;;4923789;29;20207;-77
2020/12/26 03:08:16;;;;;;;4.72;2.08;;;6.10;99.90;;;;;;4925829;29;20887;-76
2020/12/26 03:10:42;;;;;;;8.95;1.88;;;6.10;99.90;;;;;;4921477;29;20222;-77
2020/12/26 03:13:08;;;;;;;8.13;1.70;;;6.10;99.90;;;;;;4921090;29;20200;-78
2020/12/26 03:15:36;;;;;;;8.27;1.65;;;6.10;99.90;;;;;;4897892;29;20215;-77
2020/12/26 03:18:02;;;;;;;12.52;2.00;;;6.10;99.90;;;;;;4920423;29;20214;-77
2020/12/26 03:20:29;;;;;;;9.18;1.50;;;6.20;99.90;;;;;;4901112;29;20200;-78
2020/12/26 03:22:55;;;;;;;13.90;1.63;;;6.20;99.90;;;;;;4908244;29;20222;-78
2020/12/26 03:25:21;;;;;;;7.50;1.55;;;6.20;99.90;;;;;;4907742;29;20290;-78
2020/12/26 03:27:48;;;;;;;8.40;1.60;;;6.20;99.90;;;;;;4932283;29;20254;-78
2020/12/26 03:30:14;;;;;;;5.75;1.17;;;6.30;99.90;;;;;;4922696;29;20215;-78
2020/12/26 03:32:41;;;;;;;9.90;1.42;;;6.30;99.90;;;;;;4923307;29;20551;-78
2020/12/26 03:35:08;;;;;;;10.70;1.40;;;6.30;99.90;;;;;;4923851;29;20322;-78
2020/12/26 03:37:35;;;;;;;10.13;1.23;;;6.40;99.90;;;;;;4900412;29;20211;-78
2020/12/26 03:40:02;;;;;;;7.38;1.40;;;6.40;99.90;;;;;;4926040;29;20751;-79
2020/12/26 03:42:28;;;;;;;8.43;1.70;;;6.40;99.90;;;;;;4915184;29;20203;-77
2020/12/26 03:44:55;;;;;;;10.10;1.77;;;6.40;99.90;;;;;;4899058;29;20207;-78
2020/12/26 03:47:21;;;;;;;10.77;1.75;;;6.40;99.90;;;;;;4902612;29;20718;-78
2020/12/26 03:49:48;;;;;;;8.57;1.40;;;6.50;99.90;;;;;;4902247;29;20226;-78
2020/12/26 03:52:14;;;;;;;9.63;1.30;;;6.50;99.90;;;;;;4925581;29;20196;-77
2020/12/26 03:54:41;;;;;;;9.00;1.77;;;6.50;99.90;;;;;;4904142;29;20200;-76
2020/12/26 03:57:07;;;;;;;8.95;1.60;;;6.50;99.90;;;;;;4931385;29;20203;-76
2020/12/26 03:59:34;;;;;;;8.88;1.60;;;6.60;99.90;;;;;;4928683;29;20199;-78
2020/12/26 04:02:00;;;;;;;10.48;1.40;;;6.60;99.90;;;;;;4927735;29;20211;-78
2020/12/26 04:04:26;;;;;;;12.75;1.42;;;6.60;99.90;;;;;;4918475;29;20211;-78
2020/12/26 04:06:54;;;;;;;10.80;1.83;;;6.60;99.90;;;;;;4919860;29;20282;-77
2020/12/26 04:09:20;;;;;;;8.55;1.35;;;6.60;99.90;;;;;;4922419;29;20206;-78
2020/12/26 04:11:49;;;;;;;5.53;1.33;;;6.60;99.90;;;;;;4898692;29;20216;-77
2020/12/26 04:14:19;;;;;;;5.20;1.40;;;6.70;99.90;;;;;;4924922;29;20617;-77
2020/12/26 04:16:45;;;;;;;11.23;1.80;;;6.70;99.90;;;;;;4898208;29;20220;-77
2020/12/26 04:19:11;;;;;;;8.80;1.38;;;6.70;99.90;;;;;;4904585;29;20211;-76
2020/12/26 04:21:38;;;;;;;10.40;1.58;;;6.70;99.90;;;;;;4917677;29;20199;-78
2020/12/26 04:24:05;;;;;;;14.85;1.52;;;6.70;99.90;;;;;;4909802;29;20202;-77
2020/12/26 04:26:31;;;;;;;5.70;1.13;;;6.70;99.90;;;;;;4919504;29;20266;-77
2020/12/26 04:28:58;;;;;;;8.80;1.40;;;6.70;99.90;;;;;;4927834;29;20207;-77
2020/12/26 04:31:24;;;;;;;6.72;1.30;;;6.80;99.90;;;;;;4899701;29;20220;-78
2020/12/26 04:33:51;;;;;;;7.38;1.33;;;6.70;99.90;;;;;;4923377;29;20200;-77
2020/12/26 04:36:17;;;;;;;6.05;1.08;;;6.80;99.90;;;;;;4916981;29;20672;-75
2020/12/26 04:38:43;;;;;;;4.65;1.33;;;6.80;99.90;;;;;;4913088;29;20210;-76
2020/12/26 04:41:10;;;;;;;7.45;1.13;;;6.80;99.90;;;;;;4918821;29;20214;-78
2020/12/26 04:43:37;;;;;;;4.95;1.08;;;6.70;99.90;;;;;;4924770;29;20279;-78
2020/12/26 04:46:12;;;;;;;10.73;1.73;;;6.80;99.90;;;;;;4911838;29;20612;-76
2020/12/26 04:48:43;;;;;;;8.85;1.20;;;6.80;99.90;;;;;;4902148;29;20207;-78
2020/12/26 04:51:15;;;;;;;7.72;1.10;;;6.80;99.90;;;;;;4903811;29;20204;-81
2020/12/26 04:53:44;;;;;;;7.07;1.00;;;6.80;99.90;;;;;;4926926;29;20204;-79
2020/12/26 04:56:12;;;;;;;3.22;1.42;;;6.80;99.90;;;;;;4911344;29;20250;-76
2020/12/26 04:58:41;;;;;;;8.23;1.17;;;6.80;99.90;;;;;;4900816;29;20672;-77
2020/12/26 05:01:08;;;;;;;8.70;1.38;;;6.80;99.90;;;;;;4917605;29;20242;-78
2020/12/26 05:03:36;;;;;;;8.82;1.15;;;6.80;99.90;;;;;;4930143;29;20724;-77
2020/12/26 05:06:04;;;;;;;2.88;1.17;;;6.90;99.90;;;;;;4928583;29;20290;-77
2020/12/26 05:08:31;;;;;;;6.25;1.20;;;6.90;99.90;;;;;;4907397;29;20215;-82
2020/12/26 05:10:58;;;;;;;7.63;1.50;;;6.90;99.90;;;;;;4906968;29;20211;-78
2020/12/26 05:13:25;;;;;;;3.92;1.02;;;6.90;99.90;;;;;;4921878;29;20214;-79
2020/12/26 05:15:54;;;;;;;4.80;1.33;;;6.90;99.90;;;;;;4927039;29;20234;-79
2020/12/26 05:18:21;;;;;;;5.05;1.30;;;6.90;99.90;;;;;;4928230;29;20203;-78
2020/12/26 05:20:47;;;;;;;7.70;1.27;;;6.90;99.90;;;;;;4896721;29;20226;-76
2020/12/26 05:23:15;;;;;;;10.75;1.33;;;6.90;99.90;;;;;;4920497;29;20243;-77
2020/12/26 05:25:44;;;;;;;7.00;1.50;;;6.90;99.90;;;;;;4916648;29;20204;-75
2020/12/26 05:28:13;;;;;;;11.32;1.65;;;7.00;99.90;;;;;;4929995;29;20290;-76
2020/12/26 05:30:41;;;;;;;7.65;1.50;;;6.90;99.90;;;;;;4932261;29;21292;-76
2020/12/26 05:33:09;;;;;;;11.15;1.67;;;7.00;99.90;;;;;;4931527;29;20274;-76
2020/12/26 05:35:38;;;;;;;9.73;1.38;;;7.00;99.90;;;;;;4932031;29;20723;-75
2020/12/26 05:38:15;;;;;;;7.05;1.35;;;7.00;99.90;;;;;;4931812;29;20290;-76
2020/12/26 05:40:49;;;;;;;9.25;1.48;;;7.00;99.90;;;;;;4932163;29;20209;-77
2020/12/26 05:43:17;;;;;;;10.88;1.40;;;7.00;99.90;;;;;;4933081;29;20213;-76
2020/12/26 05:45:45;;;;;;;11.57;1.65;;;7.00;99.90;;;;;;4931349;29;20211;-77
2020/12/26 05:48:13;;;;;;;9.38;1.50;;;7.00;99.90;;;;;;4932732;29;20219;-77
2020/12/26 05:50:40;;;;;;;12.43;1.73;;;7.00;99.90;;;;;;4929233;29;20218;-77
2020/12/26 05:53:08;;;;;;;14.88;2.00;;;7.00;99.90;;;;;;4930981;29;20214;-77
2020/12/26 05:55:39;;;;;;;6.40;1.20;;;7.10;99.90;;;;;;4931175;29;20644;-76
2020/12/26 05:58:06;;;;;;;13.25;1.80;;;7.10;99.90;;;;;;4915348;29;20208;-76
2020/12/26 06:00:34;;;;;;;9.07;1.50;;;7.00;99.90;;;;;;4931305;29;20571;-77
2020/12/26 06:03:20;;;;;;;14.10;1.38;;;7.00;99.90;;;;;;4932855;29;20210;-76
2020/12/26 06:05:47;;;;;;;7.32;1.13;;;7.10;99.90;;;;;;4931279;29;20622;-76
2020/12/26 06:08:15;;;;;;;6.25;1.30;;;7.10;99.90;;;;;;4930032;29;20227;-77
2020/12/26 06:10:47;;;;;;;12.30;1.20;;;7.10;99.90;;;;;;4930927;29;20213;-76
2020/12/26 06:13:15;;;;;;;5.03;1.30;;;7.10;99.90;;;;;;4914176;29;20212;-77
2020/12/26 06:15:47;;;;;;;9.57;1.60;;;7.10;99.90;;;;;;4913459;29;20623;-77
2020/12/26 06:18:17;;;;;;;8.00;1.27;;;7.10;99.90;;;;;;4915402;29;20204;-77
2020/12/26 06:20:44;;;;;;;10.35;1.42;;;7.10;99.90;;;;;;4930885;29;20207;-77
2020/12/26 06:23:18;;;;;;;14.05;1.85;;;7.10;99.90;;;;;;4932766;29;20558;-77
2020/12/26 06:25:45;;;;;;;11.48;1.55;;;7.10;99.90;;;;;;4924334;29;20222;-78
2020/12/26 06:28:24;;;;;;;11.15;1.55;;;7.10;99.90;;;;;;4932594;29;20226;-77
2020/12/26 06:30:52;;;;;;;7.72;1.35;;;7.10;99.90;;;;;;4913763;29;20293;-79
2020/12/26 06:33:23;;;;;;;8.30;1.48;;;7.10;99.90;;;;;;4928885;29;20727;-78
2020/12/26 06:35:51;;;;;;;7.18;1.20;;;7.10;99.90;;;;;;4930871;29;20341;-78
2020/12/26 06:38:19;;;;;;;11.68;1.50;;;7.20;99.90;;;;;;4932830;29;20266;-77
2020/12/26 06:40:53;;;;;;;6.28;1.20;;;7.10;99.90;;;;;;4930215;29;20226;-79
2020/12/26 06:43:49;;;;;;;11.95;1.50;;;7.20;99.90;;;;;;4915957;29;20205;-79
2020/12/26 06:46:41;;;;;;;11.60;1.63;;;7.20;99.90;;;;;;4917158;29;20206;-78
2020/12/26 06:49:24;;;;;;;12.63;1.95;;;7.20;99.90;;;;;;4937807;29;20213;-78
2020/12/26 06:51:50;;;;;;;10.32;1.83;;;7.20;99.90;;;;;;4936357;29;20832;-78
2020/12/26 06:54:37;;;;;;;7.28;1.40;;;7.20;99.90;;;;;;4937414;29;20211;-79
2020/12/26 06:57:04;;;;;;;8.13;1.27;;;7.20;99.90;;;;;;4934814;29;20210;-76
2020/12/26 06:59:32;;;;;;;5.82;1.40;;;7.30;99.90;;;;;;4935173;29;20266;-75
2020/12/26 07:02:05;;;;;;;9.20;1.63;;;7.30;99.90;;;;;;4935834;29;20230;-76
2020/12/26 07:04:41;;;;;;;8.27;1.25;;;7.30;99.90;;;;;;4936390;29;20195;-77
2020/12/26 07:07:11;;;;;;;12.60;1.65;;;7.30;99.90;;;;;;4918649;29;20242;-77
2020/12/26 07:09:46;;;;;;;9.63;1.55;;;7.30;99.90;;;;;;4936364;29;20542;-77
2020/12/26 07:12:13;;;;;;;7.47;1.58;;;7.30;99.90;;;;;;4918293;29;20206;-78
2020/12/26 07:14:41;;;;;;;7.03;1.35;;;7.30;99.90;;;;;;4935300;29;20239;-78
2020/12/26 07:17:24;;;;;;;9.45;1.50;;;7.30;99.90;;;;;;4934101;29;20302;-78
2020/12/26 07:19:52;;;;;;;10.77;1.92;;;7.30;99.90;;;;;;4918232;29;20262;-78
2020/12/26 07:22:21;;;;;;;8.95;1.40;;;7.30;99.90;;;;;;4933998;29;20215;-78
2020/12/26 07:24:50;;;;;;;12.38;1.83;;;7.30;99.90;;;;;;4934871;29;20222;-78
2020/12/26 07:27:28;;;;;;;11.82;2.10;;;7.30;99.90;;;;;;4934598;29;20238;-79
2020/12/26 07:29:57;;;;;;;6.93;2.17;;;7.40;99.90;;;;;;4935745;29;20328;-77
2020/12/26 07:32:44;;;;;;;10.65;1.50;;;7.30;99.90;;;;;;4933090;29;20204;-76
2020/12/26 07:35:30;;;;;;;17.17;1.85;;;7.40;99.90;;;;;;4934094;29;20206;-78
2020/12/26 07:37:59;;;;;;;10.70;1.80;;;7.30;99.90;;;;;;4934114;29;20551;-77
2020/12/26 07:40:26;;;;;;;10.88;1.60;;;7.30;99.90;;;;;;4935470;29;20194;-77
2020/12/26 07:42:54;;;;;;;5.57;1.40;;;7.40;99.90;;;;;;4932800;29;20231;-80
2020/12/26 07:45:21;;;;;;;12.27;1.70;;;7.40;99.90;;;;;;4936082;29;20656;-77
2020/12/26 07:47:49;;;;;;;10.65;1.63;;;7.30;99.90;;;;;;4934478;29;20234;-79
2020/12/26 07:50:17;;;;;;;12.15;1.73;;;7.30;99.90;;;;;;4918370;29;20261;-77
2020/12/26 07:52:49;;;;;;;7.72;1.77;;;7.40;99.90;;;;;;4934363;29;20255;-78
2020/12/26 07:55:15;;;;;;;11.73;1.65;;;7.40;99.90;;;;;;4932718;29;20298;-78
2020/12/26 07:57:42;;;;;;;10.18;1.60;;;7.40;99.90;;;;;;4933310;29;20211;-77
2020/12/26 08:00:20;;;;;;;7.93;1.40;;;7.40;99.90;;;;;;4935354;29;20215;-77
2020/12/26 08:02:49;;;;;;;10.88;1.45;;;7.40;99.90;;;;;;4916993;29;20602;-76
2020/12/26 08:05:20;;;;;;;9.13;1.65;;;7.40;99.90;;;;;;4930849;29;20557;-76
2020/12/26 08:07:48;;;;;;;12.27;1.80;;;7.40;99.90;;;;;;4927793;29;20258;-77
2020/12/26 08:10:15;;;;;;;13.05;1.20;;;7.40;99.90;;;;;;4930071;29;20227;-78
2020/12/26 08:12:56;;;;;;;7.85;1.60;;;7.40;99.90;;;;;;4930853;29;20556;-78
2020/12/26 08:15:25;;;;;;;8.15;1.63;;;7.40;99.90;;;;;;4929844;29;20298;-77
2020/12/26 08:17:57;;;;;;;15.93;1.67;;;7.40;99.90;;;;;;4929178;29;20210;-80
2020/12/26 08:20:25;;;;;;;13.15;1.67;;;7.40;99.90;;;;;;4934793;29;20205;-77
2020/12/26 08:22:52;;;;;;;8.63;1.50;;;7.40;99.90;;;;;;4924286;29;20218;-77
2020/12/26 08:25:21;;;;;;;8.63;1.85;;;7.50;99.90;;;;;;4925605;29;20195;-76
2020/12/26 08:27:48;;;;;;;6.80;1.50;;;7.50;99.90;;;;;;4932499;29;20306;-77
2020/12/26 08:30:16;;;;;;;10.07;1.58;;;7.50;99.90;;;;;;4932439;29;20204;-78
2020/12/26 08:33:13;;;;;;;9.07;1.70;;;7.50;99.90;;;;;;4934530;29;20207;-77
2020/12/26 08:35:45;;;;;;;8.43;1.90;;;7.40;99.90;;;;;;4935407;29;20207;-78
2020/12/26 08:38:20;;;;;;;9.13;1.60;;;7.50;99.90;;;;;;4932928;29;20313;-79
2020/12/26 08:40:54;;;;;;;8.18;1.40;;;7.50;99.90;;;;;;4917092;29;20218;-77
2020/12/26 08:43:20;;;;;;;11.93;1.50;;;7.50;99.90;;;;;;4932292;29;20254;-78
2020/12/26 08:45:47;;;;;;;15.32;1.90;;;7.50;99.90;;;;;;4935851;29;20207;-76
2020/12/26 08:48:15;;;;;;;9.93;1.30;;;7.50;99.90;;;;;;4935132;29;20715;-78
2020/12/26 08:51:02;;;;;;;6.55;1.50;;;7.50;99.90;;;;;;4929904;29;20226;-78
2020/12/26 08:53:34;;;;;;;8.25;1.30;;;7.50;99.90;;;;;;4936638;29;20294;-77
2020/12/26 08:56:00;;;;;;;10.32;1.45;;;7.50;99.90;;;;;;4936558;29;20270;-77
2020/12/26 08:58:29;;;;;;;7.18;1.67;;;7.60;99.90;;;;;;4936779;29;20206;-77
2020/12/26 09:00:57;;;;;;;7.57;1.42;;;7.60;99.90;;;;;;4918523;29;20303;-77
2020/12/26 09:03:24;;;;;;;8.48;1.48;;;7.60;99.90;;;;;;4935358;29;20580;-77
2020/12/26 09:05:52;;;;;;;4.18;1.10;;;7.60;99.90;;;;;;4936067;29;20211;-77
2020/12/26 09:08:18;;;;;;;8.32;1.27;;;7.60;99.90;;;;;;4919910;29;20695;-78
2020/12/26 09:10:56;;;;;;;7.82;1.00;;;7.60;99.90;;;;;;4934960;29;20203;-78
2020/12/26 09:13:33;;;;;;;9.10;1.63;;;7.60;99.80;;;;;;4932728;29;20203;-77
2020/12/26 09:16:04;;;;;;;8.32;1.60;;;7.60;99.80;;;;;;4914239;29;20207;-76
2020/12/26 09:18:38;;;;;;;11.95;1.58;;;7.70;99.50;;;;;;4920162;29;20208;-78
2020/12/26 09:21:05;;;;;;;8.55;1.85;;;7.70;99.40;;;;;;4937373;29;20580;-77
2020/12/26 09:23:33;;;;;;;4.03;1.13;;;7.70;99.20;;;;;;4936566;29;20574;-77
2020/12/26 09:26:12;;;;;;;5.95;1.05;;;7.70;99.10;;;;;;4931480;29;20728;-77
2020/12/26 09:28:47;;;;;;;10.95;1.20;;;7.70;98.80;;;;;;4901324;29;20226;-76
2020/12/26 09:31:14;;;;;;;9.43;1.30;;;7.70;98.70;;;;;;4918912;29;20206;-78
2020/12/26 09:33:41;;;;;;;5.78;1.15;;;7.70;98.50;;;;;;4891899;29;20231;-78
2020/12/26 09:36:11;;;;;;;6.80;1.10;;;7.70;98.30;;;;;;4917443;29;20668;-77
2020/12/26 09:38:38;;;;;;;11.85;1.40;;;7.70;98.20;;;;;;4916158;29;20208;-77
2020/12/26 09:41:16;;;;;;;10.13;1.48;;;7.70;98.10;;;;;;4899261;29;20209;-77
2020/12/26 09:43:44;;;;;;;6.03;1.48;;;7.70;98.10;;;;;;4898649;29;20201;-78
2020/12/26 09:46:10;;;;;;;12.10;1.85;;;7.70;98.10;;;;;;4917634;29;20215;-77
2020/12/26 09:48:37;;;;;;;9.25;1.80;;;7.70;98.20;;;;;;4901392;29;20230;-77
2020/12/26 09:51:10;;;;;;;6.18;1.48;;;7.70;98.20;;;;;;4918086;29;20204;-78
2020/12/26 09:53:36;;;;;;;9.07;1.30;;;7.80;98.30;;;;;;4918531;29;20199;-79
2020/12/26 09:56:06;;;;;;;8.27;1.77;;;7.80;98.40;;;;;;4914527;29;20203;-76
2020/12/26 09:58:34;;;;;;;11.63;1.73;;;7.80;98.40;;;;;;4917236;29;20207;-77
2020/12/26 10:01:00;;;;;;;12.40;1.88;;;7.90;98.40;;;;;;4916949;29;20211;-77
2020/12/26 10:03:26;;;;;;;10.45;1.80;;;7.90;98.30;;;;;;4918108;29;20259;-78
2020/12/26 10:05:52;;;;;;;14.57;2.70;;;7.90;98.30;;;;;;4917615;29;20208;-78
2020/12/26 10:08:20;;;;;;;14.63;2.70;;;7.90;98.20;;;;;;4918066;29;20219;-78
2020/12/26 10:10:47;;;;;;;9.57;2.40;;;7.90;98.30;;;;;;4916803;29;20569;-80
2020/12/26 10:13:14;;;;;;;12.55;3.15;;;7.90;98.40;;;;;;4915425;29;20569;-78
2020/12/26 10:15:41;;;;;;;9.80;2.60;;;7.80;98.50;;;;;;4896261;29;20650;-79
2020/12/26 10:18:07;;;;;;;8.25;2.90;;;7.80;98.60;;;;;;4913319;29;20199;-78
2020/12/26 10:20:34;;;;;;;12.00;2.97;;;7.70;98.80;;;;;;4895392;29;20212;-81
2020/12/26 10:23:01;;;;;;;14.20;3.17;;;7.70;98.90;;;;;;4914343;29;20212;-77
2020/12/26 10:25:27;;;;;;;12.48;2.65;;;7.70;99.10;;;;;;4914065;29;20203;-78
2020/12/26 10:27:53;;;;;;;14.65;2.47;;;7.70;99.30;;;;;;4926938;29;20250;-78
2020/12/26 10:30:20;;;;;;;9.27;2.65;;;7.70;99.40;;;;;;4933364;29;20222;-78
2020/12/26 10:32:48;;;;;;;9.95;2.90;;;7.50;99.90;;;;;;4932921;29;20242;-78
2020/12/26 10:35:14;;;;;;;10.52;2.85;;;7.50;99.60;;;;;;4916902;29;20203;-78
2020/12/26 10:37:41;;;;;;;10.57;2.97;;;7.50;99.80;;;;;;4917336;29;20199;-82
2020/12/26 10:40:07;;;;;;;10.80;2.72;;;7.50;99.90;;;;;;4932632;29;20235;-80
2020/12/26 10:42:34;;;;;;;12.85;2.90;;;7.40;99.90;;;;;;4917305;29;20262;-77
2020/12/26 10:45:00;;;;;;;14.18;2.55;;;7.40;99.90;;;;;;4916750;29;20290;-81
2020/12/26 10:47:28;;;;;;;9.65;2.50;;;7.40;99.90;;;;;;4934029;29;20291;-79
2020/12/26 10:49:55;;;;;;;15.95;2.90;;;7.30;99.90;;;;;;4935096;29;20206;-84
2020/12/26 10:52:22;;;;;;;10.90;2.35;;;7.30;99.90;;;;;;4915283;29;20207;-83
2020/12/26 10:54:49;;;;;;;8.40;2.33;;;7.30;99.90;;;;;;4929646;29;20204;-80
2020/12/26 10:57:16;;;;;;;11.10;2.50;;;7.30;99.90;;;;;;4928932;29;20733;-79
2020/12/26 10:59:42;;;;;;;9.55;3.55;;;7.30;99.90;;;;;;4914989;29;20238;-80
2020/12/26 11:02:09;;;;;;;10.65;2.50;;;7.30;99.90;;;;;;4931901;29;20203;-77
2020/12/26 11:04:35;;;;;;;11.98;2.50;;;7.30;99.90;;;;;;4916722;29;22204;-78
2020/12/26 11:07:02;;;;;;;9.23;2.70;;;7.20;99.90;;;;;;4933678;29;20229;-80
2020/12/26 11:09:29;;;;;;;15.00;3.35;;;7.20;99.90;;;;;;4933814;29;20207;-77
2020/12/26 11:11:55;;;;;;;14.43;2.70;;;7.10;99.90;;;;;;4931644;29;20195;-78
2020/12/26 11:14:21;;;;;;;13.10;3.33;;;7.10;99.90;;;;;;4932484;29;20226;-79
2020/12/26 11:16:48;;;;;;;11.38;2.92;;;7.00;99.90;;;;;;4913554;29;20218;-78
2020/12/26 11:19:15;;;;;;;9.75;3.08;;;7.00;99.90;;;;;;4932259;29;20207;-78
2020/12/26 11:21:41;;;;;;;9.98;3.00;;;6.90;99.90;;;;;;4914414;29;20226;-77
2020/12/26 11:24:09;;;;;;;13.57;2.95;;;6.90;99.90;;;;;;4916436;29;20218;-76
2020/12/26 11:26:35;;;;;;;13.40;3.22;;;6.80;99.90;;;;;;4915088;29;20239;-78
2020/12/26 11:29:02;;;;;;;11.85;3.05;;;6.80;99.90;;;;;;4915535;29;20887;-78
2020/12/26 11:31:28;;;;;;;10.55;2.90;;;6.70;99.90;;;;;;4936034;29;20207;-79
2020/12/26 11:33:55;;;;;;;14.55;3.20;;;6.70;99.90;;;;;;4935969;29;20203;-78
2020/12/26 11:36:23;;;;;;;13.23;4.00;;;6.70;99.90;;;;;;4918079;29;20215;-78
2020/12/26 11:38:50;;;;;;;6.88;3.50;;;6.70;99.90;;;;;;4934796;29;20701;-77
2020/12/26 11:41:17;;;;;;;12.65;3.50;;;6.70;99.90;;;;;;4932974;29;20225;-77
2020/12/26 11:43:44;;;;;;;10.25;3.88;;;6.70;99.90;;;;;;4935363;29;20209;-77
2020/12/26 11:46:11;;;;;;;12.05;4.53;;;6.60;99.90;;;;;;4933754;29;20964;-76
2020/12/26 11:48:37;;;;;;;10.45;4.03;;;6.60;99.90;;;;;;4936310;29;20684;-77
2020/12/26 11:51:04;;;;;;;13.88;4.50;;;6.60;99.90;;;;;;4917109;29;20206;-78
2020/12/26 11:53:31;;;;;;;13.95;4.45;;;6.60;99.90;;;;;;4935038;29;20207;-77
2020/12/26 11:55:57;;;;;;;10.45;4.88;;;6.60;99.90;;;;;;4917149;29;20219;-78
2020/12/26 11:58:25;;;;;;;11.88;4.72;;;6.60;99.90;;;;;;4935997;29;20562;-75
2020/12/26 12:00:52;;;;;;;18.45;6.03;;;6.50;99.90;;;;;;4933476;29;20203;-77
2020/12/26 12:03:18;;;;;;;18.77;5.95;;;6.50;99.90;;;;;;4933342;29;20207;-78
2020/12/26 12:05:45;;;;;;;12.55;5.90;;;6.60;99.90;;;;;;4932770;29;20210;-78
2020/12/26 12:08:11;;;;;;;14.93;5.90;;;6.60;99.90;;;;;;4936289;29;20227;-77
2020/12/26 12:10:39;;;;;;;12.38;7.07;;;6.60;99.90;;;;;;4935108;29;20266;-78
2020/12/26 12:13:06;;;;;;;14.43;6.85;;;6.50;99.90;;;;;;4918262;29;20218;-78
2020/12/26 12:15:33;;;;;;;15.23;6.93;;;6.50;99.90;;;;;;4934927;29;20204;-77
2020/12/26 12:18:00;;;;;;;13.95;8.00;;;6.60;99.90;;;;;;4918356;29;20207;-78
2020/12/26 12:20:27;;;;;;;18.00;8.30;;;6.60;99.90;;;;;;4917632;29;20206;-77
2020/12/26 12:22:53;;;;;;;18.92;8.73;;;6.50;99.90;;;;;;4916510;29;20203;-81
2020/12/26 12:25:20;;;;;;;14.65;8.88;;;6.50;99.90;;;;;;4918583;29;20211;-82
2020/12/26 12:27:47;;;;;;;18.65;9.40;;;6.60;99.90;;;;;;4935132;29;20238;-78
2020/12/26 12:30:13;;;;;;;18.63;9.80;;;6.50;99.90;;;;;;4935667;29;20199;-76
2020/12/26 12:32:40;;;;;;;21.17;8.57;;;6.60;99.90;;;;;;4933785;29;20290;-78
2020/12/26 12:35:07;;;;;;;19.30;9.65;;;6.60;99.90;;;;;;4935293;29;20608;-77
2020/12/26 12:37:34;;;;;;;22.88;9.30;;;6.60;99.90;;;;;;4933596;29;20205;-76
2020/12/26 12:40:00;;;;;;;14.30;8.48;;;6.60;99.90;;;;;;4935507;29;20704;-77
2020/12/26 12:42:28;;;;;;;12.60;8.70;;;6.60;99.90;;;;;;4916800;29;20211;-77
2020/12/26 12:44:54;;;;;;;17.67;9.00;;;6.60;99.90;;;;;;4934932;29;20747;-77
2020/12/26 12:47:22;;;;;;;16.85;9.10;;;6.60;99.90;;;;;;4932063;29;20223;-78
2020/12/26 12:49:50;;;;;;;12.70;9.00;;;6.60;99.90;;;;;;4933026;29;20207;-79
2020/12/26 12:52:16;;;;;;;15.38;8.57;;;6.60;99.90;;;;;;4934644;29;20700;-83
2020/12/26 12:54:42;;;;;;;16.38;9.15;;;6.60;99.90;;;;;;4930826;29;20209;-78
2020/12/26 12:57:09;;;;;;;13.60;9.27;;;6.60;99.90;;;;;;4932744;29;20214;-77
2020/12/26 12:59:36;;;;;;;17.25;9.02;;;6.60;99.90;;;;;;4915154;29;20207;-78